sensor_id;sensor_type;location;lat;lon;timestamp;P1;durP1;ratioP1;P2;durP2;ratioP2
52866;SDS011;38739;53.324;6.862;2022-11-13T00:01:10;52.50;;;32.42;;
52866;SDS011;38739;53.324;6.862;2022-11-13T00:03:38;38.92;;;27.52;;
52866;SDS011;38739;53.324;6.862;2022-11-13T00:06:04;39.33;;;26.48;;
52866;SDS011;38739;53.324;6.862;2022-11-13T00:08:30;40.22;;;28.88;;
52866;SDS011;38739;53.324;6.862;2022-11-13T00:11:15;48.75;;;30.90;;
52866;SDS011;38739;53.324;6.862;2022-11-13T00:13:45;42.22;;;28.92;;
52866;SDS011;38739;53.324;6.862;2022-11-13T00:16:16;44.45;;;29.25;;
52866;SDS011;38739;53.324;6.862;2022-11-13T00:18:44;38.03;;;27.08;;
52866;SDS011;38739;53.324;6.862;2022-11-13T00:21:10;42.33;;;30.13;;
52866;SDS011;38739;53.324;6.862;2022-11-13T00:23:39;42.00;;;28.35;;
52866;SDS011;38739;53.324;6.862;2022-11-13T00:26:06;43.35;;;29.05;;
52866;SDS011;38739;53.324;6.862;2022-11-13T00:28:33;42.58;;;28.70;;
52866;SDS011;38739;53.324;6.862;2022-11-13T00:30:59;47.13;;;29.92;;
52866;SDS011;38739;53.324;6.862;2022-11-13T00:33:26;41.15;;;30.17;;
52866;SDS011;38739;53.324;6.862;2022-11-13T00:35:52;45.97;;;30.30;;
52866;SDS011;38739;53.324;6.862;2022-11-13T00:38:17;50.17;;;31.98;;
52866;SDS011;38739;53.324;6.862;2022-11-13T00:40:43;59.30;;;34.15;;
52866;SDS011;38739;53.324;6.862;2022-11-13T00:43:09;49.42;;;31.20;;
52866;SDS011;38739;53.324;6.862;2022-11-13T00:45:35;44.67;;;30.70;;
52866;SDS011;38739;53.324;6.862;2022-11-13T00:48:00;43.63;;;29.67;;
52866;SDS011;38739;53.324;6.862;2022-11-13T00:50:26;48.42;;;31.30;;
52866;SDS011;38739;53.324;6.862;2022-11-13T00:52:52;46.22;;;31.17;;
52866;SDS011;38739;53.324;6.862;2022-11-13T00:55:18;52.83;;;31.65;;
52866;SDS011;38739;53.324;6.862;2022-11-13T00:57:43;45.75;;;31.17;;
52866;SDS011;38739;53.324;6.862;2022-11-13T01:00:09;54.03;;;34.17;;
52866;SDS011;38739;53.324;6.862;2022-11-13T01:02:35;50.55;;;33.25;;
52866;SDS011;38739;53.324;6.862;2022-11-13T01:05:01;53.30;;;33.92;;
52866;SDS011;38739;53.324;6.862;2022-11-13T01:07:28;58.25;;;36.63;;
52866;SDS011;38739;53.324;6.862;2022-11-13T01:09:53;57.55;;;35.75;;
52866;SDS011;38739;53.324;6.862;2022-11-13T01:12:19;64.50;;;37.70;;
52866;SDS011;38739;53.324;6.862;2022-11-13T01:14:45;56.08;;;34.45;;
52866;SDS011;38739;53.324;6.862;2022-11-13T01:17:10;58.60;;;36.05;;
52866;SDS011;38739;53.324;6.862;2022-11-13T01:19:36;56.92;;;35.75;;
52866;SDS011;38739;53.324;6.862;2022-11-13T01:22:02;66.22;;;37.72;;
52866;SDS011;38739;53.324;6.862;2022-11-13T01:24:27;59.40;;;34.28;;
52866;SDS011;38739;53.324;6.862;2022-11-13T01:26:53;56.28;;;34.50;;
52866;SDS011;38739;53.324;6.862;2022-11-13T01:29:19;58.10;;;34.58;;
52866;SDS011;38739;53.324;6.862;2022-11-13T01:31:44;54.28;;;34.28;;
52866;SDS011;38739;53.324;6.862;2022-11-13T01:34:10;53.53;;;34.28;;
52866;SDS011;38739;53.324;6.862;2022-11-13T01:36:37;52.25;;;33.85;;
52866;SDS011;38739;53.324;6.862;2022-11-13T01:39:03;54.80;;;33.95;;
52866;SDS011;38739;53.324;6.862;2022-11-13T01:41:29;54.63;;;33.53;;
52866;SDS011;38739;53.324;6.862;2022-11-13T01:43:56;52.17;;;33.83;;
52866;SDS011;38739;53.324;6.862;2022-11-13T01:46:42;55.90;;;34.22;;
52866;SDS011;38739;53.324;6.862;2022-11-13T01:49:33;51.47;;;32.83;;
52866;SDS011;38739;53.324;6.862;2022-11-13T01:52:01;52.45;;;33.83;;
52866;SDS011;38739;53.324;6.862;2022-11-13T01:54:34;50.90;;;34.00;;
52866;SDS011;38739;53.324;6.862;2022-11-13T01:57:04;54.72;;;32.35;;
52866;SDS011;38739;53.324;6.862;2022-11-13T01:59:32;53.60;;;33.53;;
52866;SDS011;38739;53.324;6.862;2022-11-13T02:02:01;49.88;;;33.50;;
52866;SDS011;38739;53.324;6.862;2022-11-13T02:04:27;49.58;;;31.40;;
52866;SDS011;38739;53.324;6.862;2022-11-13T02:09:51;54.08;;;32.30;;
52866;SDS011;38739;53.324;6.862;2022-11-13T02:12:37;50.78;;;32.95;;
52866;SDS011;38739;53.324;6.862;2022-11-13T02:15:10;54.97;;;33.30;;
52866;SDS011;38739;53.324;6.862;2022-11-13T02:17:42;52.40;;;33.65;;
52866;SDS011;38739;53.324;6.862;2022-11-13T02:20:14;49.78;;;31.98;;
52866;SDS011;38739;53.324;6.862;2022-11-13T02:23:07;52.45;;;32.25;;
52866;SDS011;38739;53.324;6.862;2022-11-13T02:25:29;54.85;;;33.47;;
52866;SDS011;38739;53.324;6.862;2022-11-13T02:27:57;48.58;;;31.88;;
52866;SDS011;38739;53.324;6.862;2022-11-13T02:30:27;45.80;;;29.40;;
52866;SDS011;38739;53.324;6.862;2022-11-13T02:35:23;45.05;;;29.45;;
52866;SDS011;38739;53.324;6.862;2022-11-13T02:38:01;44.15;;;30.00;;
52866;SDS011;38739;53.324;6.862;2022-11-13T02:40:29;45.38;;;29.92;;
52866;SDS011;38739;53.324;6.862;2022-11-13T02:42:56;47.97;;;29.92;;
52866;SDS011;38739;53.324;6.862;2022-11-13T02:45:22;42.70;;;28.88;;
52866;SDS011;38739;53.324;6.862;2022-11-13T02:47:48;44.63;;;30.00;;
52866;SDS011;38739;53.324;6.862;2022-11-13T02:50:14;45.08;;;29.05;;
52866;SDS011;38739;53.324;6.862;2022-11-13T02:52:40;44.38;;;29.25;;
52866;SDS011;38739;53.324;6.862;2022-11-13T02:55:06;49.45;;;29.55;;
52866;SDS011;38739;53.324;6.862;2022-11-13T02:57:33;45.10;;;28.95;;
52866;SDS011;38739;53.324;6.862;2022-11-13T02:59:58;43.08;;;28.15;;
52866;SDS011;38739;53.324;6.862;2022-11-13T03:02:24;46.83;;;29.38;;
52866;SDS011;38739;53.324;6.862;2022-11-13T03:04:50;39.75;;;27.00;;
52866;SDS011;38739;53.324;6.862;2022-11-13T03:07:15;38.15;;;26.33;;
52866;SDS011;38739;53.324;6.862;2022-11-13T03:09:41;37.90;;;27.17;;
52866;SDS011;38739;53.324;6.862;2022-11-13T03:12:07;48.05;;;27.88;;
52866;SDS011;38739;53.324;6.862;2022-11-13T03:14:34;41.33;;;26.67;;
52866;SDS011;38739;53.324;6.862;2022-11-13T03:17:00;43.97;;;27.80;;
52866;SDS011;38739;53.324;6.862;2022-11-13T03:19:26;43.88;;;28.13;;
52866;SDS011;38739;53.324;6.862;2022-11-13T03:21:51;38.70;;;26.40;;
52866;SDS011;38739;53.324;6.862;2022-11-13T03:24:17;38.85;;;25.73;;
52866;SDS011;38739;53.324;6.862;2022-11-13T03:26:43;45.75;;;27.13;;
52866;SDS011;38739;53.324;6.862;2022-11-13T03:29:09;38.63;;;25.50;;
52866;SDS011;38739;53.324;6.862;2022-11-13T03:31:34;37.85;;;25.67;;
52866;SDS011;38739;53.324;6.862;2022-11-13T03:34:00;38.38;;;25.10;;
52866;SDS011;38739;53.324;6.862;2022-11-13T03:36:26;41.67;;;27.42;;
52866;SDS011;38739;53.324;6.862;2022-11-13T03:38:51;39.30;;;27.38;;
52866;SDS011;38739;53.324;6.862;2022-11-13T03:41:18;43.22;;;27.83;;
52866;SDS011;38739;53.324;6.862;2022-11-13T03:43:43;44.83;;;26.90;;
52866;SDS011;38739;53.324;6.862;2022-11-13T03:46:09;45.15;;;26.95;;
52866;SDS011;38739;53.324;6.862;2022-11-13T03:48:35;42.85;;;26.80;;
52866;SDS011;38739;53.324;6.862;2022-11-13T03:51:00;49.58;;;29.38;;
52866;SDS011;38739;53.324;6.862;2022-11-13T03:53:27;46.88;;;27.92;;
52866;SDS011;38739;53.324;6.862;2022-11-13T03:55:52;40.83;;;25.30;;
52866;SDS011;38739;53.324;6.862;2022-11-13T03:58:18;44.50;;;27.33;;
52866;SDS011;38739;53.324;6.862;2022-11-13T04:00:45;43.13;;;27.10;;
52866;SDS011;38739;53.324;6.862;2022-11-13T04:03:11;41.95;;;26.08;;
52866;SDS011;38739;53.324;6.862;2022-11-13T04:05:37;39.05;;;26.63;;
52866;SDS011;38739;53.324;6.862;2022-11-13T04:08:03;37.55;;;25.65;;
52866;SDS011;38739;53.324;6.862;2022-11-13T04:10:29;49.38;;;28.73;;
52866;SDS011;38739;53.324;6.862;2022-11-13T04:12:55;43.95;;;27.50;;
52866;SDS011;38739;53.324;6.862;2022-11-13T04:15:21;41.55;;;26.92;;
52866;SDS011;38739;53.324;6.862;2022-11-13T04:17:47;45.65;;;26.40;;
52866;SDS011;38739;53.324;6.862;2022-11-13T04:20:13;39.40;;;25.02;;
52866;SDS011;38739;53.324;6.862;2022-11-13T04:22:39;38.78;;;24.23;;
52866;SDS011;38739;53.324;6.862;2022-11-13T04:25:05;41.75;;;25.33;;
52866;SDS011;38739;53.324;6.862;2022-11-13T04:27:31;34.40;;;24.05;;
52866;SDS011;38739;53.324;6.862;2022-11-13T04:29:57;40.42;;;25.17;;
52866;SDS011;38739;53.324;6.862;2022-11-13T04:32:22;38.72;;;25.50;;
52866;SDS011;38739;53.324;6.862;2022-11-13T04:34:48;38.60;;;24.45;;
52866;SDS011;38739;53.324;6.862;2022-11-13T04:37:14;44.80;;;26.77;;
52866;SDS011;38739;53.324;6.862;2022-11-13T04:39:39;43.60;;;26.88;;
52866;SDS011;38739;53.324;6.862;2022-11-13T04:42:05;41.50;;;25.17;;
52866;SDS011;38739;53.324;6.862;2022-11-13T04:44:51;38.78;;;23.92;;
52866;SDS011;38739;53.324;6.862;2022-11-13T04:47:17;36.85;;;24.98;;
52866;SDS011;38739;53.324;6.862;2022-11-13T04:49:42;34.50;;;23.77;;
52866;SDS011;38739;53.324;6.862;2022-11-13T04:52:08;39.78;;;24.55;;
52866;SDS011;38739;53.324;6.862;2022-11-13T04:54:34;39.97;;;25.13;;
52866;SDS011;38739;53.324;6.862;2022-11-13T04:56:59;40.17;;;25.73;;
52866;SDS011;38739;53.324;6.862;2022-11-13T04:59:25;40.10;;;24.95;;
52866;SDS011;38739;53.324;6.862;2022-11-13T05:01:51;42.88;;;25.60;;
52866;SDS011;38739;53.324;6.862;2022-11-13T05:04:17;38.53;;;23.75;;
52866;SDS011;38739;53.324;6.862;2022-11-13T05:06:42;42.05;;;25.65;;
52866;SDS011;38739;53.324;6.862;2022-11-13T05:09:09;40.85;;;24.95;;
52866;SDS011;38739;53.324;6.862;2022-11-13T05:11:35;44.25;;;24.23;;
52866;SDS011;38739;53.324;6.862;2022-11-13T05:14:01;37.40;;;24.77;;
52866;SDS011;38739;53.324;6.862;2022-11-13T05:16:28;40.03;;;24.40;;
52866;SDS011;38739;53.324;6.862;2022-11-13T05:18:53;35.55;;;23.98;;
52866;SDS011;38739;53.324;6.862;2022-11-13T05:21:21;35.80;;;24.17;;
52866;SDS011;38739;53.324;6.862;2022-11-13T05:23:46;34.42;;;22.98;;
52866;SDS011;38739;53.324;6.862;2022-11-13T05:26:12;37.58;;;24.55;;
52866;SDS011;38739;53.324;6.862;2022-11-13T05:28:39;37.90;;;24.77;;
52866;SDS011;38739;53.324;6.862;2022-11-13T05:31:09;35.33;;;22.73;;
52866;SDS011;38739;53.324;6.862;2022-11-13T05:33:37;33.65;;;22.70;;
52866;SDS011;38739;53.324;6.862;2022-11-13T05:36:04;35.33;;;23.15;;
52866;SDS011;38739;53.324;6.862;2022-11-13T05:38:32;34.70;;;22.00;;
52866;SDS011;38739;53.324;6.862;2022-11-13T05:41:17;32.65;;;21.98;;
52866;SDS011;38739;53.324;6.862;2022-11-13T05:43:45;32.70;;;21.20;;
52866;SDS011;38739;53.324;6.862;2022-11-13T05:46:13;37.20;;;21.92;;
52866;SDS011;38739;53.324;6.862;2022-11-13T05:48:41;34.83;;;21.33;;
52866;SDS011;38739;53.324;6.862;2022-11-13T05:53:35;31.17;;;21.08;;
52866;SDS011;38739;53.324;6.862;2022-11-13T05:56:05;30.80;;;20.60;;
52866;SDS011;38739;53.324;6.862;2022-11-13T05:58:35;35.63;;;22.05;;
52866;SDS011;38739;53.324;6.862;2022-11-13T06:01:05;37.40;;;22.83;;
52866;SDS011;38739;53.324;6.862;2022-11-13T06:03:35;36.90;;;21.50;;
52866;SDS011;38739;53.324;6.862;2022-11-13T06:06:01;34.85;;;22.58;;
52866;SDS011;38739;53.324;6.862;2022-11-13T06:08:32;34.55;;;21.95;;
52866;SDS011;38739;53.324;6.862;2022-11-13T06:10:59;35.83;;;21.35;;
52866;SDS011;38739;53.324;6.862;2022-11-13T06:13:26;36.42;;;21.45;;
52866;SDS011;38739;53.324;6.862;2022-11-13T06:15:52;40.03;;;22.45;;
52866;SDS011;38739;53.324;6.862;2022-11-13T06:18:22;33.95;;;22.05;;
52866;SDS011;38739;53.324;6.862;2022-11-13T06:20:48;38.70;;;22.92;;
52866;SDS011;38739;53.324;6.862;2022-11-13T06:23:14;42.33;;;24.30;;
52866;SDS011;38739;53.324;6.862;2022-11-13T06:25:40;37.17;;;22.33;;
52866;SDS011;38739;53.324;6.862;2022-11-13T06:28:06;40.42;;;22.95;;
52866;SDS011;38739;53.324;6.862;2022-11-13T06:30:32;40.55;;;23.67;;
52866;SDS011;38739;53.324;6.862;2022-11-13T06:32:57;43.88;;;23.15;;
52866;SDS011;38739;53.324;6.862;2022-11-13T06:35:23;40.00;;;23.08;;
52866;SDS011;38739;53.324;6.862;2022-11-13T06:37:49;36.17;;;23.25;;
52866;SDS011;38739;53.324;6.862;2022-11-13T06:40:14;41.22;;;23.63;;
52866;SDS011;38739;53.324;6.862;2022-11-13T06:42:40;41.47;;;22.30;;
52866;SDS011;38739;53.324;6.862;2022-11-13T06:45:06;36.42;;;21.65;;
52866;SDS011;38739;53.324;6.862;2022-11-13T06:47:32;34.25;;;21.15;;
52866;SDS011;38739;53.324;6.862;2022-11-13T06:49:58;36.78;;;21.70;;
52866;SDS011;38739;53.324;6.862;2022-11-13T06:52:23;39.28;;;22.27;;
52866;SDS011;38739;53.324;6.862;2022-11-13T06:54:49;35.65;;;21.63;;
52866;SDS011;38739;53.324;6.862;2022-11-13T06:57:15;33.47;;;21.63;;
52866;SDS011;38739;53.324;6.862;2022-11-13T06:59:40;38.38;;;22.08;;
52866;SDS011;38739;53.324;6.862;2022-11-13T07:02:07;39.28;;;22.90;;
52866;SDS011;38739;53.324;6.862;2022-11-13T07:04:35;33.25;;;21.00;;
52866;SDS011;38739;53.324;6.862;2022-11-13T07:07:00;40.10;;;22.83;;
52866;SDS011;38739;53.324;6.862;2022-11-13T07:09:28;37.95;;;23.20;;
52866;SDS011;38739;53.324;6.862;2022-11-13T07:11:54;39.40;;;22.20;;
52866;SDS011;38739;53.324;6.862;2022-11-13T07:14:20;42.13;;;22.23;;
52866;SDS011;38739;53.324;6.862;2022-11-13T07:16:45;42.55;;;23.00;;
52866;SDS011;38739;53.324;6.862;2022-11-13T07:19:11;32.88;;;21.65;;
52866;SDS011;38739;53.324;6.862;2022-11-13T07:21:37;41.25;;;22.52;;
52866;SDS011;38739;53.324;6.862;2022-11-13T07:24:02;39.13;;;22.35;;
52866;SDS011;38739;53.324;6.862;2022-11-13T07:26:28;40.60;;;23.17;;
52866;SDS011;38739;53.324;6.862;2022-11-13T07:28:54;36.17;;;22.83;;
52866;SDS011;38739;53.324;6.862;2022-11-13T07:31:20;38.75;;;24.10;;
52866;SDS011;38739;53.324;6.862;2022-11-13T07:33:46;34.85;;;22.50;;
52866;SDS011;38739;53.324;6.862;2022-11-13T07:36:13;41.97;;;24.75;;
52866;SDS011;38739;53.324;6.862;2022-11-13T07:38:39;40.40;;;24.42;;
52866;SDS011;38739;53.324;6.862;2022-11-13T07:41:05;40.55;;;23.83;;
52866;SDS011;38739;53.324;6.862;2022-11-13T07:43:31;36.30;;;23.70;;
52866;SDS011;38739;53.324;6.862;2022-11-13T07:45:57;41.20;;;24.60;;
52866;SDS011;38739;53.324;6.862;2022-11-13T07:48:23;37.45;;;24.38;;
52866;SDS011;38739;53.324;6.862;2022-11-13T07:50:51;41.22;;;25.33;;
52866;SDS011;38739;53.324;6.862;2022-11-13T07:53:17;39.13;;;23.35;;
52866;SDS011;38739;53.324;6.862;2022-11-13T07:55:44;39.85;;;24.48;;
52866;SDS011;38739;53.324;6.862;2022-11-13T07:58:10;35.63;;;24.25;;
52866;SDS011;38739;53.324;6.862;2022-11-13T08:00:36;39.17;;;24.65;;
52866;SDS011;38739;53.324;6.862;2022-11-13T08:03:06;38.63;;;25.00;;
52866;SDS011;38739;53.324;6.862;2022-11-13T08:05:34;40.17;;;25.85;;
52866;SDS011;38739;53.324;6.862;2022-11-13T08:08:00;39.92;;;26.10;;
52866;SDS011;38739;53.324;6.862;2022-11-13T08:10:26;39.15;;;26.58;;
52866;SDS011;38739;53.324;6.862;2022-11-13T08:13:03;45.55;;;26.65;;
52866;SDS011;38739;53.324;6.862;2022-11-13T08:15:30;43.78;;;27.05;;
52866;SDS011;38739;53.324;6.862;2022-11-13T08:17:57;40.28;;;25.88;;
52866;SDS011;38739;53.324;6.862;2022-11-13T08:20:25;41.17;;;25.83;;
52866;SDS011;38739;53.324;6.862;2022-11-13T08:22:54;41.60;;;25.17;;
52866;SDS011;38739;53.324;6.862;2022-11-13T08:25:21;38.40;;;24.17;;
52866;SDS011;38739;53.324;6.862;2022-11-13T08:27:47;43.13;;;26.63;;
52866;SDS011;38739;53.324;6.862;2022-11-13T08:30:13;46.17;;;25.38;;
52866;SDS011;38739;53.324;6.862;2022-11-13T08:32:39;43.03;;;26.33;;
52866;SDS011;38739;53.324;6.862;2022-11-13T08:35:05;42.42;;;25.60;;
52866;SDS011;38739;53.324;6.862;2022-11-13T08:37:31;40.33;;;24.58;;
52866;SDS011;38739;53.324;6.862;2022-11-13T08:39:57;36.65;;;24.63;;
52866;SDS011;38739;53.324;6.862;2022-11-13T08:42:23;37.63;;;23.50;;
52866;SDS011;38739;53.324;6.862;2022-11-13T08:44:48;38.80;;;24.60;;
52866;SDS011;38739;53.324;6.862;2022-11-13T08:47:14;46.10;;;26.52;;
52866;SDS011;38739;53.324;6.862;2022-11-13T08:49:40;35.92;;;22.67;;
52866;SDS011;38739;53.324;6.862;2022-11-13T08:52:06;35.05;;;23.17;;
52866;SDS011;38739;53.324;6.862;2022-11-13T08:54:31;32.15;;;22.90;;
52866;SDS011;38739;53.324;6.862;2022-11-13T08:56:57;32.72;;;22.95;;
52866;SDS011;38739;53.324;6.862;2022-11-13T08:59:23;37.80;;;23.27;;
52866;SDS011;38739;53.324;6.862;2022-11-13T09:01:48;33.83;;;21.98;;
52866;SDS011;38739;53.324;6.862;2022-11-13T09:04:14;31.15;;;21.83;;
52866;SDS011;38739;53.324;6.862;2022-11-13T09:06:40;29.95;;;22.17;;
52866;SDS011;38739;53.324;6.862;2022-11-13T09:09:06;32.55;;;21.52;;
52866;SDS011;38739;53.324;6.862;2022-11-13T09:11:32;35.42;;;23.35;;
52866;SDS011;38739;53.324;6.862;2022-11-13T09:13:58;37.38;;;21.45;;
52866;SDS011;38739;53.324;6.862;2022-11-13T09:16:24;31.27;;;21.95;;
52866;SDS011;38739;53.324;6.862;2022-11-13T09:18:50;33.17;;;21.85;;
52866;SDS011;38739;53.324;6.862;2022-11-13T09:21:16;35.92;;;22.92;;
52866;SDS011;38739;53.324;6.862;2022-11-13T09:23:42;32.33;;;21.65;;
52866;SDS011;38739;53.324;6.862;2022-11-13T09:26:08;31.30;;;21.10;;
52866;SDS011;38739;53.324;6.862;2022-11-13T09:28:34;31.52;;;21.38;;
52866;SDS011;38739;53.324;6.862;2022-11-13T09:31:02;31.90;;;20.85;;
52866;SDS011;38739;53.324;6.862;2022-11-13T09:33:31;34.30;;;20.67;;
52866;SDS011;38739;53.324;6.862;2022-11-13T09:35:57;29.20;;;20.95;;
52866;SDS011;38739;53.324;6.862;2022-11-13T09:38:23;31.80;;;20.80;;
52866;SDS011;38739;53.324;6.862;2022-11-13T09:41:09;30.83;;;20.25;;
52866;SDS011;38739;53.324;6.862;2022-11-13T09:43:45;31.77;;;20.25;;
52866;SDS011;38739;53.324;6.862;2022-11-13T09:49:10;27.70;;;18.98;;
52866;SDS011;38739;53.324;6.862;2022-11-13T09:51:55;27.17;;;18.52;;
52866;SDS011;38739;53.324;6.862;2022-11-13T09:54:22;22.80;;;16.55;;
52866;SDS011;38739;53.324;6.862;2022-11-13T09:59:58;22.45;;;16.25;;
52866;SDS011;38739;53.324;6.862;2022-11-13T10:10:03;17.13;;;14.85;;
52866;SDS011;38739;53.324;6.862;2022-11-13T10:13:04;18.77;;;14.13;;
52866;SDS011;38739;53.324;6.862;2022-11-13T10:15:33;18.38;;;14.52;;
52866;SDS011;38739;53.324;6.862;2022-11-13T10:18:03;17.00;;;13.43;;
52866;SDS011;38739;53.324;6.862;2022-11-13T10:20:35;18.92;;;14.77;;
52866;SDS011;38739;53.324;6.862;2022-11-13T10:23:07;17.88;;;14.65;;
52866;SDS011;38739;53.324;6.862;2022-11-13T10:25:34;20.60;;;15.20;;
52866;SDS011;38739;53.324;6.862;2022-11-13T10:28:13;17.55;;;13.73;;
52866;SDS011;38739;53.324;6.862;2022-11-13T10:30:41;17.38;;;13.93;;
52866;SDS011;38739;53.324;6.862;2022-11-13T10:33:21;17.40;;;13.75;;
52866;SDS011;38739;53.324;6.862;2022-11-13T10:38:27;15.32;;;12.90;;
52866;SDS011;38739;53.324;6.862;2022-11-13T10:41:18;17.95;;;12.98;;
52866;SDS011;38739;53.324;6.862;2022-11-13T10:43:54;18.85;;;13.48;;
52866;SDS011;38739;53.324;6.862;2022-11-13T10:46:29;16.35;;;12.25;;
52866;SDS011;38739;53.324;6.862;2022-11-13T10:48:55;14.82;;;12.30;;
52866;SDS011;38739;53.324;6.862;2022-11-13T10:51:23;17.23;;;12.70;;
52866;SDS011;38739;53.324;6.862;2022-11-13T10:53:51;15.13;;;12.02;;
52866;SDS011;38739;53.324;6.862;2022-11-13T10:56:24;16.58;;;12.45;;
52866;SDS011;38739;53.324;6.862;2022-11-13T10:59:09;17.58;;;13.82;;
52866;SDS011;38739;53.324;6.862;2022-11-13T11:01:35;16.98;;;13.23;;
52866;SDS011;38739;53.324;6.862;2022-11-13T11:04:02;18.30;;;13.98;;
52866;SDS011;38739;53.324;6.862;2022-11-13T11:06:32;17.55;;;14.32;;
52866;SDS011;38739;53.324;6.862;2022-11-13T11:09:35;18.65;;;14.63;;
52866;SDS011;38739;53.324;6.862;2022-11-13T11:17:22;14.20;;;11.73;;
52866;SDS011;38739;53.324;6.862;2022-11-13T11:23:05;17.42;;;11.98;;
52866;SDS011;38739;53.324;6.862;2022-11-13T11:25:42;14.82;;;11.48;;
52866;SDS011;38739;53.324;6.862;2022-11-13T11:28:19;17.80;;;12.05;;
52866;SDS011;38739;53.324;6.862;2022-11-13T11:30:51;13.52;;;11.40;;
52866;SDS011;38739;53.324;6.862;2022-11-13T11:33:24;14.90;;;11.65;;
52866;SDS011;38739;53.324;6.862;2022-11-13T11:41:35;12.35;;;8.80;;
52866;SDS011;38739;53.324;6.862;2022-11-13T11:44:24;16.10;;;9.80;;
52866;SDS011;38739;53.324;6.862;2022-11-13T11:46:57;11.63;;;9.60;;
52866;SDS011;38739;53.324;6.862;2022-11-13T11:49:24;11.73;;;9.80;;
52866;SDS011;38739;53.324;6.862;2022-11-13T11:52:00;12.88;;;10.07;;
52866;SDS011;38739;53.324;6.862;2022-11-13T11:54:39;15.43;;;11.10;;
52866;SDS011;38739;53.324;6.862;2022-11-13T11:57:18;15.75;;;11.85;;
52866;SDS011;38739;53.324;6.862;2022-11-13T12:00:11;17.38;;;11.70;;
52866;SDS011;38739;53.324;6.862;2022-11-13T12:08:22;18.42;;;12.63;;
52866;SDS011;38739;53.324;6.862;2022-11-13T12:11:26;16.10;;;12.23;;
52866;SDS011;38739;53.324;6.862;2022-11-13T12:14:20;18.02;;;12.82;;
52866;SDS011;38739;53.324;6.862;2022-11-13T12:17:12;16.60;;;11.30;;
52866;SDS011;38739;53.324;6.862;2022-11-13T12:22:15;12.05;;;9.80;;
52866;SDS011;38739;53.324;6.862;2022-11-13T12:27:54;13.45;;;10.38;;
52866;SDS011;38739;53.324;6.862;2022-11-13T12:36:09;14.10;;;11.07;;
52866;SDS011;38739;53.324;6.862;2022-11-13T12:46:41;14.43;;;11.20;;
52866;SDS011;38739;53.324;6.862;2022-11-13T12:51:58;15.27;;;11.50;;
52866;SDS011;38739;53.324;6.862;2022-11-13T12:54:39;12.70;;;11.13;;
52866;SDS011;38739;53.324;6.862;2022-11-13T12:59:38;13.57;;;10.83;;
52866;SDS011;38739;53.324;6.862;2022-11-13T13:15:24;15.55;;;9.30;;
52866;SDS011;38739;53.324;6.862;2022-11-13T13:23:33;11.27;;;9.45;;
52866;SDS011;38739;53.324;6.862;2022-11-13T13:28:49;11.38;;;8.80;;
52866;SDS011;38739;53.324;6.862;2022-11-13T13:37:02;11.52;;;9.13;;
52866;SDS011;38739;53.324;6.862;2022-11-13T13:43:06;13.18;;;8.73;;
52866;SDS011;38739;53.324;6.862;2022-11-13T13:45:55;11.07;;;8.90;;
52866;SDS011;38739;53.324;6.862;2022-11-13T13:48:41;11.90;;;9.05;;
52866;SDS011;38739;53.324;6.862;2022-11-13T13:51:43;13.68;;;9.45;;
52866;SDS011;38739;53.324;6.862;2022-11-13T13:54:06;13.13;;;9.15;;
52866;SDS011;38739;53.324;6.862;2022-11-13T13:56:33;13.13;;;9.50;;
52866;SDS011;38739;53.324;6.862;2022-11-13T13:59:09;11.70;;;9.02;;
52866;SDS011;38739;53.324;6.862;2022-11-13T14:01:59;12.32;;;8.88;;
52866;SDS011;38739;53.324;6.862;2022-11-13T14:04:27;12.35;;;9.10;;
52866;SDS011;38739;53.324;6.862;2022-11-13T14:06:55;13.95;;;9.38;;
52866;SDS011;38739;53.324;6.862;2022-11-13T14:09:23;15.90;;;9.90;;
52866;SDS011;38739;53.324;6.862;2022-11-13T14:12:04;14.23;;;9.85;;
52866;SDS011;38739;53.324;6.862;2022-11-13T14:14:31;12.57;;;10.20;;
52866;SDS011;38739;53.324;6.862;2022-11-13T14:16:59;18.35;;;10.85;;
52866;SDS011;38739;53.324;6.862;2022-11-13T14:19:26;14.45;;;10.95;;
52866;SDS011;38739;53.324;6.862;2022-11-13T14:21:56;14.02;;;10.45;;
52866;SDS011;38739;53.324;6.862;2022-11-13T14:24:26;14.77;;;11.15;;
52866;SDS011;38739;53.324;6.862;2022-11-13T14:26:59;15.32;;;10.80;;
52866;SDS011;38739;53.324;6.862;2022-11-13T14:29:36;15.65;;;10.88;;
52866;SDS011;38739;53.324;6.862;2022-11-13T14:32:20;16.75;;;11.60;;
52866;SDS011;38739;53.324;6.862;2022-11-13T14:34:50;19.67;;;11.73;;
52866;SDS011;38739;53.324;6.862;2022-11-13T14:37:24;14.85;;;11.40;;
52866;SDS011;38739;53.324;6.862;2022-11-13T14:39:51;16.15;;;10.95;;
52866;SDS011;38739;53.324;6.862;2022-11-13T14:42:36;17.88;;;11.25;;
52866;SDS011;38739;53.324;6.862;2022-11-13T14:45:15;14.90;;;11.45;;
52866;SDS011;38739;53.324;6.862;2022-11-13T14:47:59;16.38;;;11.20;;
52866;SDS011;38739;53.324;6.862;2022-11-13T14:50:47;16.13;;;11.68;;
52866;SDS011;38739;53.324;6.862;2022-11-13T14:53:24;14.52;;;11.30;;
52866;SDS011;38739;53.324;6.862;2022-11-13T14:56:04;14.45;;;11.30;;
52866;SDS011;38739;53.324;6.862;2022-11-13T15:03:40;15.02;;;11.57;;
52866;SDS011;38739;53.324;6.862;2022-11-13T15:06:19;18.38;;;11.77;;
52866;SDS011;38739;53.324;6.862;2022-11-13T15:08:52;15.55;;;12.25;;
52866;SDS011;38739;53.324;6.862;2022-11-13T15:11:23;18.70;;;12.15;;
52866;SDS011;38739;53.324;6.862;2022-11-13T15:13:49;22.85;;;13.98;;
52866;SDS011;38739;53.324;6.862;2022-11-13T15:16:22;17.55;;;13.32;;
52866;SDS011;38739;53.324;6.862;2022-11-13T15:21:29;19.48;;;13.55;;
52866;SDS011;38739;53.324;6.862;2022-11-13T15:23:55;19.60;;;13.30;;
52866;SDS011;38739;53.324;6.862;2022-11-13T15:26:21;18.70;;;13.13;;
52866;SDS011;38739;53.324;6.862;2022-11-13T15:28:48;17.95;;;12.45;;
52866;SDS011;38739;53.324;6.862;2022-11-13T15:31:17;20.80;;;12.95;;
52866;SDS011;38739;53.324;6.862;2022-11-13T15:33:44;19.10;;;13.35;;
52866;SDS011;38739;53.324;6.862;2022-11-13T15:36:11;19.73;;;14.13;;
52866;SDS011;38739;53.324;6.862;2022-11-13T15:38:36;21.27;;;14.25;;
52866;SDS011;38739;53.324;6.862;2022-11-13T15:41:08;20.88;;;14.82;;
52866;SDS011;38739;53.324;6.862;2022-11-13T15:43:43;17.60;;;13.98;;
52866;SDS011;38739;53.324;6.862;2022-11-13T15:46:11;18.73;;;14.30;;
52866;SDS011;38739;53.324;6.862;2022-11-13T15:48:42;18.23;;;14.30;;
52866;SDS011;38739;53.324;6.862;2022-11-13T15:53:40;19.63;;;14.48;;
52866;SDS011;38739;53.324;6.862;2022-11-13T15:56:06;18.70;;;14.15;;
52866;SDS011;38739;53.324;6.862;2022-11-13T15:58:32;24.23;;;15.10;;
52866;SDS011;38739;53.324;6.862;2022-11-13T16:00:58;23.70;;;15.80;;
52866;SDS011;38739;53.324;6.862;2022-11-13T16:03:23;19.40;;;14.27;;
52866;SDS011;38739;53.324;6.862;2022-11-13T16:05:50;20.52;;;14.80;;
52866;SDS011;38739;53.324;6.862;2022-11-13T16:08:15;23.13;;;14.75;;
52866;SDS011;38739;53.324;6.862;2022-11-13T16:10:41;23.00;;;15.90;;
52866;SDS011;38739;53.324;6.862;2022-11-13T16:13:07;21.23;;;15.55;;
52866;SDS011;38739;53.324;6.862;2022-11-13T16:15:33;23.05;;;15.95;;
52866;SDS011;38739;53.324;6.862;2022-11-13T16:17:58;22.70;;;15.68;;
52866;SDS011;38739;53.324;6.862;2022-11-13T16:20:25;23.70;;;15.27;;
52866;SDS011;38739;53.324;6.862;2022-11-13T16:22:51;20.45;;;15.63;;
52866;SDS011;38739;53.324;6.862;2022-11-13T16:25:18;20.00;;;15.18;;